Time;durP1;ratioP1;P1;durP2;ratioP2;P2;SDS_P1;SDS_P2;PMS_P1;PMS_P2;Temp;Humidity;BMP_temperature;BMP_pressure;BME280_temperature;BME280_humidity;BME280_pressure;Samples;Min_cycle;Max_cycle;Signal;HPM_P1;HPM_P2
2022/08/19 00:02:06;;;;;;;17.60;12.88;;;;;;;;;;5036818;28;20037;-76
2022/08/19 00:04:36;;;;;;;17.80;14.00;;;;;;;;;;5036827;28;20434;-77
2022/08/19 00:07:04;;;;;;;17.98;14.18;;;;;;;;;;5054461;28;20045;-76
2022/08/19 00:09:32;;;;;;;18.60;15.43;;;;;;;;;;5054032;28;20040;-76
2022/08/19 00:12:00;;;;;;;14.68;11.32;;;;;;;;;;5053586;28;20048;-76
2022/08/19 00:14:31;;;;;;;14.48;10.45;;;;;;;;;;5054052;28;20039;-76
2022/08/19 00:16:59;;;;;;;21.77;16.95;;;;;;;;;;5054179;28;20045;-76
2022/08/19 00:19:26;;;;;;;14.40;10.40;;;;;;;;;;5036198;28;20037;-76
2022/08/19 00:21:55;;;;;;;13.88;10.70;;;;;;;;;;5053908;28;20068;-76
2022/08/19 00:24:23;;;;;;;14.82;9.65;;;;;;;;;;5054042;28;20039;-76
2022/08/19 00:26:52;;;;;;;17.33;11.07;;;;;;;;;;5053959;28;20084;-76
2022/08/19 00:29:21;;;;;;;17.05;13.23;;;;;;;;;;5053628;28;20091;-76
2022/08/19 00:31:49;;;;;;;18.73;14.02;;;;;;;;;;5053734;28;20152;-76
2022/08/19 00:34:17;;;;;;;14.30;12.05;;;;;;;;;;5053666;28;20029;-76
2022/08/19 00:36:45;;;;;;;17.05;14.05;;;;;;;;;;5053808;28;20045;-77
2022/08/19 00:39:13;;;;;;;14.57;11.88;;;;;;;;;;5053245;28;20364;-77
2022/08/19 00:41:40;;;;;;;15.30;12.95;;;;;;;;;;5053390;28;20037;-76
2022/08/19 00:44:15;;;;;;;16.83;12.55;;;;;;;;;;5053417;28;20043;-77
2022/08/19 00:46:44;;;;;;;14.38;10.70;;;;;;;;;;5053368;28;20046;-77
2022/08/19 00:49:27;;;;;;;13.80;10.32;;;;;;;;;;5053250;28;20376;-77
2022/08/19 00:52:00;;;;;;;14.55;10.43;;;;;;;;;;5053274;28;20095;-77
2022/08/19 00:54:31;;;;;;;16.98;10.82;;;;;;;;;;5053304;28;20071;-77
2022/08/19 00:57:00;;;;;;;13.77;10.48;;;;;;;;;;5053479;28;20041;-77
2022/08/19 00:59:28;;;;;;;12.75;10.68;;;;;;;;;;5053184;28;20037;-77
2022/08/19 01:02:17;;;;;;;12.32;10.65;;;;;;;;;;5053376;28;20068;-77
2022/08/19 01:04:44;;;;;;;13.77;10.25;;;;;;;;;;5053240;28;20139;-78
2022/08/19 01:07:12;;;;;;;15.45;10.57;;;;;;;;;;5035664;28;20495;-77
2022/08/19 01:09:43;;;;;;;14.98;10.80;;;;;;;;;;5053102;28;20045;-78
2022/08/19 01:12:11;;;;;;;16.95;10.77;;;;;;;;;;5053225;28;20041;-77
2022/08/19 01:14:40;;;;;;;14.20;10.73;;;;;;;;;;5053185;28;20044;-78
2022/08/19 01:17:09;;;;;;;12.77;10.70;;;;;;;;;;5052903;28;20044;-78
2022/08/19 01:19:39;;;;;;;16.08;11.20;;;;;;;;;;5035270;28;20036;-79
2022/08/19 01:22:32;;;;;;;15.50;10.85;;;;;;;;;;5052835;28;20057;-78
2022/08/19 01:25:01;;;;;;;13.80;11.18;;;;;;;;;;5052220;28;20064;-78
2022/08/19 01:27:37;;;;;;;15.68;10.88;;;;;;;;;;5052872;28;20044;-78
2022/08/19 01:30:12;;;;;;;18.83;11.88;;;;;;;;;;5052588;28;20506;-79
2022/08/19 01:32:40;;;;;;;14.35;11.25;;;;;;;;;;5052800;28;20127;-78
2022/08/19 01:35:09;;;;;;;14.85;11.43;;;;;;;;;;5034768;28;20565;-79
2022/08/19 01:37:43;;;;;;;13.48;11.05;;;;;;;;;;5052578;28;20434;-78
2022/08/19 01:40:11;;;;;;;16.38;13.70;;;;;;;;;;5052528;28;20550;-79
2022/08/19 01:42:39;;;;;;;14.60;11.35;;;;;;;;;;5052384;28;20074;-79
2022/08/19 01:45:07;;;;;;;17.92;13.70;;;;;;;;;;5052091;28;20454;-79
2022/08/19 01:47:38;;;;;;;20.55;15.82;;;;;;;;;;5052335;28;20063;-79
2022/08/19 01:50:08;;;;;;;19.40;15.05;;;;;;;;;;5052418;28;20040;-79
2022/08/19 01:52:40;;;;;;;23.38;16.58;;;;;;;;;;5052264;28;20095;-79
2022/08/19 01:55:10;;;;;;;14.23;12.13;;;;;;;;;;5034733;28;20532;-79
2022/08/19 01:57:39;;;;;;;23.83;17.55;;;;;;;;;;5052527;28;20052;-79
2022/08/19 02:00:09;;;;;;;18.27;13.80;;;;;;;;;;5052458;28;20044;-79
2022/08/19 02:02:39;;;;;;;14.02;11.43;;;;;;;;;;5052351;28;20044;-79
2022/08/19 02:05:11;;;;;;;17.27;12.30;;;;;;;;;;5052709;28;20441;-79
2022/08/19 02:07:39;;;;;;;16.13;11.27;;;;;;;;;;5052516;28;20047;-79
2022/08/19 02:10:09;;;;;;;14.30;11.38;;;;;;;;;;5052457;28;20567;-79
2022/08/19 02:12:39;;;;;;;16.38;11.20;;;;;;;;;;5052051;28;20037;-79
2022/08/19 02:15:07;;;;;;;16.50;12.27;;;;;;;;;;5052308;28;20048;-80
2022/08/19 02:17:35;;;;;;;17.05;12.38;;;;;;;;;;5052304;28;20479;-79
2022/08/19 02:20:02;;;;;;;16.45;12.10;;;;;;;;;;5052306;28;20491;-79
2022/08/19 02:22:30;;;;;;;15.35;11.38;;;;;;;;;;5051732;28;20107;-79
2022/08/19 02:24:57;;;;;;;16.98;12.18;;;;;;;;;;5052054;28;20049;-79
2022/08/19 02:27:25;;;;;;;16.60;13.27;;;;;;;;;;5052165;28;20545;-79
2022/08/19 02:29:54;;;;;;;15.05;12.57;;;;;;;;;;5051913;28;20045;-79
2022/08/19 02:32:21;;;;;;;17.45;12.23;;;;;;;;;;5051800;28;20049;-80
2022/08/19 02:34:49;;;;;;;17.15;12.10;;;;;;;;;;5052551;28;20120;-80
2022/08/19 02:40:03;;;;;;;15.27;12.23;;;;;;;;;;5056053;28;20037;-80
2022/08/19 02:42:40;;;;;;;13.93;12.35;;;;;;;;;;5055647;28;20044;-80
2022/08/19 02:45:08;;;;;;;15.00;12.75;;;;;;;;;;5055661;28;20041;-79
2022/08/19 02:47:35;;;;;;;16.92;13.82;;;;;;;;;;5055831;28;20042;-79
2022/08/19 02:50:04;;;;;;;18.08;12.93;;;;;;;;;;5055625;28;20039;-80
2022/08/19 02:52:32;;;;;;;15.77;11.88;;;;;;;;;;5037631;28;20453;-79
2022/08/19 02:55:00;;;;;;;15.13;12.30;;;;;;;;;;5055428;28;20041;-80
2022/08/19 02:57:28;;;;;;;16.55;12.40;;;;;;;;;;5055536;28;20037;-80
2022/08/19 02:59:55;;;;;;;17.95;12.80;;;;;;;;;;5055574;28;20029;-79
2022/08/19 03:02:23;;;;;;;14.15;12.32;;;;;;;;;;5055438;28;20079;-79
2022/08/19 03:04:50;;;;;;;21.67;12.85;;;;;;;;;;5055341;28;20044;-79
2022/08/19 03:07:18;;;;;;;18.50;13.23;;;;;;;;;;5055152;28;20045;-79
2022/08/19 03:09:46;;;;;;;16.45;13.30;;;;;;;;;;5055159;28;20039;-80
2022/08/19 03:12:13;;;;;;;18.65;13.13;;;;;;;;;;5055154;28;20103;-80
2022/08/19 03:14:41;;;;;;;17.27;12.32;;;;;;;;;;5054949;28;20033;-80
2022/08/19 03:17:08;;;;;;;27.85;21.80;;;;;;;;;;5055121;28;20041;-80
2022/08/19 03:19:36;;;;;;;23.23;18.60;;;;;;;;;;5054972;28;20045;-80
2022/08/19 03:22:04;;;;;;;25.65;19.70;;;;;;;;;;5054790;28;20082;-79
2022/08/19 03:24:32;;;;;;;23.60;17.48;;;;;;;;;;5055059;28;20041;-79
2022/08/19 03:26:59;;;;;;;24.65;17.05;;;;;;;;;;5055031;28;20398;-79
2022/08/19 03:29:28;;;;;;;20.27;14.50;;;;;;;;;;5054820;28;20041;-79
2022/08/19 03:32:01;;;;;;;17.70;13.32;;;;;;;;;;5054795;28;20041;-79
2022/08/19 03:34:32;;;;;;;19.50;12.63;;;;;;;;;;5054609;28;20041;-79
2022/08/19 03:37:03;;;;;;;28.92;22.17;;;;;;;;;;5054704;28;20041;-79
2022/08/19 03:39:31;;;;;;;20.08;14.63;;;;;;;;;;5054909;28;20444;-79
2022/08/19 03:42:02;;;;;;;27.40;22.88;;;;;;;;;;5054665;28;20037;-79
2022/08/19 03:44:49;;;;;;;22.95;18.67;;;;;;;;;;5054472;28;20510;-79
2022/08/19 03:47:17;;;;;;;22.83;18.40;;;;;;;;;;5053498;28;20384;-78
2022/08/19 03:49:45;;;;;;;92.53;73.30;;;;;;;;;;5054559;28;20045;-81
2022/08/19 03:52:13;;;;;;;50.45;39.78;;;;;;;;;;5054259;28;20048;-80
2022/08/19 03:54:41;;;;;;;20.50;14.02;;;;;;;;;;5036337;28;20047;-78
2022/08/19 03:57:09;;;;;;;22.55;14.68;;;;;;;;;;5042034;28;20040;-78
2022/08/19 03:59:37;;;;;;;20.85;13.75;;;;;;;;;;5074520;28;20651;-73
2022/08/19 04:02:09;;;;;;;37.00;28.98;;;;;;;;;;5074203;28;20040;-77
2022/08/19 04:04:38;;;;;;;27.10;19.92;;;;;;;;;;5074067;28;20498;-76
2022/08/19 04:07:06;;;;;;;23.83;17.63;;;;;;;;;;5073992;28;20047;-79
2022/08/19 04:09:34;;;;;;;22.73;18.92;;;;;;;;;;5072963;28;20391;-78
2022/08/19 04:12:04;;;;;;;24.98;19.48;;;;;;;;;;5073809;28;20504;-78
2022/08/19 04:14:33;;;;;;;32.90;24.15;;;;;;;;;;5073413;28;20094;-76
2022/08/19 04:17:04;;;;;;;20.30;15.05;;;;;;;;;;5056470;28;20094;-77
2022/08/19 04:19:32;;;;;;;20.45;15.23;;;;;;;;;;5073109;28;20626;-76
2022/08/19 04:21:59;;;;;;;19.35;14.50;;;;;;;;;;5072826;28;20044;-76
2022/08/19 04:24:27;;;;;;;15.38;13.23;;;;;;;;;;5072503;28;20123;-76
2022/08/19 04:26:55;;;;;;;17.75;13.57;;;;;;;;;;5073098;28;20040;-76
2022/08/19 04:29:24;;;;;;;71.43;59.10;;;;;;;;;;5073195;28;20482;-75
2022/08/19 04:31:54;;;;;;;17.60;14.77;;;;;;;;;;5073349;28;20532;-75
2022/08/19 04:34:23;;;;;;;25.05;20.98;;;;;;;;;;5072207;28;20081;-75
2022/08/19 04:36:51;;;;;;;20.80;15.07;;;;;;;;;;5073092;28;20028;-75
2022/08/19 04:39:21;;;;;;;14.60;12.68;;;;;;;;;;5073085;28;20041;-76
2022/08/19 04:44:36;;;;;;;17.75;15.00;;;;;;;;;;5071489;28;20494;-76
2022/08/19 04:47:13;;;;;;;21.05;17.95;;;;;;;;;;5071815;28;20037;-76
2022/08/19 04:49:41;;;;;;;21.45;17.23;;;;;;;;;;5072622;28;20044;-77
2022/08/19 04:52:09;;;;;;;20.35;14.98;;;;;;;;;;5072718;28;20072;-76
2022/08/19 04:54:36;;;;;;;24.02;15.32;;;;;;;;;;5072999;28;20045;-76
2022/08/19 04:57:09;;;;;;;106.15;73.45;;;;;;;;;;5072744;28;20044;-77
2022/08/19 04:59:38;;;;;;;52.35;38.63;;;;;;;;;;5072700;28;20047;-76
2022/08/19 05:02:07;;;;;;;24.38;15.82;;;;;;;;;;5073072;28;20066;-76
2022/08/19 05:04:37;;;;;;;20.40;15.65;;;;;;;;;;5073091;28;20048;-76
2022/08/19 05:07:05;;;;;;;19.20;15.18;;;;;;;;;;5073135;28;20076;-76
2022/08/19 05:09:33;;;;;;;24.17;14.85;;;;;;;;;;5072964;28;20036;-76
2022/08/19 05:12:20;;;;;;;21.13;14.82;;;;;;;;;;5072846;28;20040;-76
2022/08/19 05:14:54;;;;;;;18.10;14.02;;;;;;;;;;5071723;28;20048;-76
2022/08/19 05:17:21;;;;;;;20.25;14.70;;;;;;;;;;5072161;28;20404;-76
2022/08/19 05:22:52;;;;;;;53.55;41.28;;;;;;;;;;5072207;28;20060;-75
2022/08/19 05:25:20;;;;;;;18.75;14.05;;;;;;;;;;5072720;28;20383;-76
2022/08/19 05:27:48;;;;;;;18.25;15.40;;;;;;;;;;5072303;28;20037;-75
2022/08/19 05:30:16;;;;;;;16.70;13.27;;;;;;;;;;5072193;28;20049;-76
2022/08/19 05:32:44;;;;;;;19.42;15.63;;;;;;;;;;5072580;28;20040;-77
2022/08/19 05:35:11;;;;;;;19.35;12.80;;;;;;;;;;5072606;28;20043;-76
2022/08/19 05:37:40;;;;;;;15.38;12.55;;;;;;;;;;5072714;28;20049;-76
2022/08/19 05:40:08;;;;;;;18.35;11.80;;;;;;;;;;5072475;28;20043;-76
2022/08/19 05:42:37;;;;;;;17.05;11.95;;;;;;;;;;5072558;28;20040;-74
2022/08/19 05:45:04;;;;;;;15.18;11.63;;;;;;;;;;5072464;28;20037;-74
2022/08/19 05:47:32;;;;;;;19.05;13.95;;;;;;;;;;5072487;28;20040;-76
2022/08/19 05:50:01;;;;;;;12.70;10.00;;;;;;;;;;5072393;28;20057;-75
2022/08/19 05:52:31;;;;;;;14.15;11.15;;;;;;;;;;5072243;28;20406;-76
2022/08/19 05:54:59;;;;;;;16.80;12.63;;;;;;;;;;5072350;28;20040;-76
2022/08/19 05:57:28;;;;;;;18.00;13.88;;;;;;;;;;5072344;28;20048;-76
2022/08/19 05:59:57;;;;;;;22.52;16.58;;;;;;;;;;5072150;28;20668;-76
2022/08/19 06:02:26;;;;;;;35.40;28.27;;;;;;;;;;5072168;28;20438;-76
2022/08/19 06:04:53;;;;;;;20.27;15.38;;;;;;;;;;5072218;28;20070;-74
2022/08/19 06:07:21;;;;;;;15.70;12.13;;;;;;;;;;5071675;28;20359;-78
2022/08/19 06:09:48;;;;;;;14.60;11.90;;;;;;;;;;5072552;28;20043;-79
2022/08/19 06:12:30;;;;;;;15.90;12.32;;;;;;;;;;5060030;28;20044;-79
2022/08/19 06:14:58;;;;;;;13.40;11.23;;;;;;;;;;5075746;28;20040;-81
2022/08/19 06:17:29;;;;;;;12.43;10.15;;;;;;;;;;5076063;28;20033;-81
2022/08/19 06:19:58;;;;;;;14.40;10.80;;;;;;;;;;5058541;28;20398;-82
2022/08/19 06:22:26;;;;;;;15.70;11.65;;;;;;;;;;5075745;28;20083;-85
2022/08/19 06:24:55;;;;;;;19.23;14.75;;;;;;;;;;5075998;28;20075;-85
2022/08/19 06:27:22;;;;;;;16.02;12.52;;;;;;;;;;5075982;28;20123;-84
2022/08/19 06:29:50;;;;;;;12.70;9.93;;;;;;;;;;5076081;28;20490;-85
2022/08/19 06:32:18;;;;;;;14.48;12.27;;;;;;;;;;5075976;28;20032;-84
2022/08/19 06:34:46;;;;;;;14.98;11.55;;;;;;;;;;5075972;28;20047;-83
2022/08/19 06:37:14;;;;;;;15.40;11.32;;;;;;;;;;5075847;28;20044;-83
2022/08/19 06:39:43;;;;;;;53.05;42.92;;;;;;;;;;5075710;28;20102;-82
2022/08/19 06:42:16;;;;;;;16.63;12.45;;;;;;;;;;5058060;28;20473;-83
2022/08/19 06:44:46;;;;;;;14.95;10.00;;;;;;;;;;5075759;28;20033;-84
2022/08/19 06:47:20;;;;;;;15.25;10.27;;;;;;;;;;5075576;28;20094;-82
2022/08/19 06:49:59;;;;;;;21.55;14.98;;;;;;;;;;5075733;28;20047;-84
2022/08/19 06:52:30;;;;;;;21.23;15.32;;;;;;;;;;5075534;28;20044;-87
2022/08/19 06:55:00;;;;;;;12.40;10.27;;;;;;;;;;5075572;28;20067;-85
2022/08/19 06:57:33;;;;;;;11.90;8.32;;;;;;;;;;5075744;28;20040;-85
2022/08/19 07:00:00;;;;;;;11.75;6.97;;;;;;;;;;5058472;28;20040;-82
2022/08/19 07:02:28;;;;;;;11.93;9.35;;;;;;;;;;5075529;28;20043;-86
2022/08/19 07:04:57;;;;;;;13.10;9.25;;;;;;;;;;5075539;28;20046;-83
2022/08/19 07:07:25;;;;;;;9.48;8.43;;;;;;;;;;5075728;28;20431;-86
2022/08/19 07:09:53;;;;;;;9.75;7.68;;;;;;;;;;5075335;28;20045;-82
2022/08/19 07:12:34;;;;;;;12.07;6.22;;;;;;;;;;5075424;28;20041;-80
2022/08/19 07:15:10;;;;;;;8.15;6.10;;;;;;;;;;5075254;28;20128;-79
2022/08/19 07:17:39;;;;;;;9.75;6.18;;;;;;;;;;5075208;28;20036;-81
2022/08/19 07:20:08;;;;;;;8.10;6.93;;;;;;;;;;5075226;28;20044;-81
2022/08/19 07:22:37;;;;;;;9.55;6.20;;;;;;;;;;5073730;28;20049;-79
2022/08/19 07:25:06;;;;;;;11.82;6.60;;;;;;;;;;5075190;28;20459;-81
2022/08/19 07:27:34;;;;;;;7.57;6.10;;;;;;;;;;5075173;28;20057;-79
2022/08/19 07:30:01;;;;;;;13.10;6.55;;;;;;;;;;5074951;28;20044;-81
2022/08/19 07:32:30;;;;;;;9.15;6.05;;;;;;;;;;5074798;28;20036;-85
2022/08/19 07:35:00;;;;;;;9.10;6.38;;;;;;;;;;5057449;28;20557;-83
2022/08/19 07:37:28;;;;;;;9.60;6.95;;;;;;;;;;5074859;28;20049;-81
2022/08/19 07:40:00;;;;;;;8.35;6.28;;;;;;;;;;5074844;28;20045;-82
2022/08/19 07:42:29;;;;;;;7.93;7.13;;;;;;;;;;5074633;28;20067;-83
2022/08/19 07:44:58;;;;;;;7.38;6.00;;;;;;;;;;5075619;28;20490;-81
2022/08/19 07:47:27;;;;;;;6.80;5.60;;;;;;;;;;5074740;28;20075;-82
2022/08/19 07:50:15;;;;;;;7.55;5.78;;;;;;;;;;5076012;28;20040;-80
2022/08/19 07:52:44;;;;;;;8.27;6.13;;;;;;;;;;5058930;28;20036;-81
2022/08/19 07:55:17;;;;;;;8.73;6.95;;;;;;;;;;5057304;28;20429;-81
2022/08/19 07:58:04;;;;;;;10.15;6.00;;;;;;;;;;5074749;28;20046;-79
2022/08/19 08:00:32;;;;;;;10.73;6.75;;;;;;;;;;5074572;28;20045;-80
2022/08/19 08:03:00;;;;;;;8.93;6.57;;;;;;;;;;5074373;28;20074;-80
2022/08/19 08:19:06;;;;;;;11.55;5.80;;;;;;;;;;5134156;22;20425;-73
2022/08/19 08:21:52;;;;;;;8.15;5.57;;;;;;;;;;5131031;28;20092;-73
2022/08/19 08:24:20;;;;;;;5.90;5.25;;;;;;;;;;5131143;28;20488;-72
2022/08/19 08:26:47;;;;;;;6.35;5.65;;;;;;;;;;5130867;28;20071;-73
2022/08/19 08:29:23;;;;;;;8.43;5.25;;;;;;;;;;5130814;28;20498;-73
2022/08/19 08:31:52;;;;;;;9.32;5.70;;;;;;;;;;5130924;28;20085;-73
2022/08/19 08:34:26;;;;;;;8.65;5.40;;;;;;;;;;5130372;28;20043;-73
2022/08/19 08:36:54;;;;;;;6.60;5.47;;;;;;;;;;5130636;28;20043;-72
2022/08/19 08:39:22;;;;;;;7.88;5.20;;;;;;;;;;5130519;28;20045;-73
2022/08/19 08:42:06;;;;;;;9.77;5.28;;;;;;;;;;5130592;28;20050;-73
2022/08/19 08:44:49;;;;;;;9.90;5.70;;;;;;;;;;5130022;28;20040;-75
2022/08/19 08:47:19;;;;;;;7.75;4.80;;;;;;;;;;5130334;28;20035;-74
2022/08/19 08:49:56;;;;;;;8.60;6.53;;;;;;;;;;5129520;28;20036;-74
2022/08/19 08:52:29;;;;;;;8.45;6.60;;;;;;;;;;5130018;28;20065;-74
2022/08/19 08:55:02;;;;;;;8.10;6.40;;;;;;;;;;5129959;28;20535;-74
2022/08/19 08:57:39;;;;;;;9.43;6.15;;;;;;;;;;5130219;28;20047;-75
2022/08/19 09:00:12;;;;;;;7.70;5.93;;;;;;;;;;5130072;28;20502;-74
2022/08/19 09:02:42;;;;;;;6.95;5.80;;;;;;;;;;5137511;27;20084;-74
2022/08/19 09:05:12;;;;;;;7.10;5.95;;;;;;;;;;5150712;27;20046;-73
2022/08/19 09:08:04;;;;;;;8.30;6.73;;;;;;;;;;5150500;27;20047;-71
2022/08/19 09:10:40;;;;;;;10.10;5.95;;;;;;;;;;5153082;27;20061;-70
2022/08/19 09:13:17;;;;;;;10.73;6.38;;;;;;;;;;5149999;27;20043;-71
2022/08/19 09:15:48;;;;;;;10.73;5.95;;;;;;;;;;5149629;27;20464;-71
2022/08/19 09:18:16;;;;;;;7.97;6.35;;;;;;;;;;5146208;27;20043;-70
2022/08/19 09:20:49;;;;;;;7.38;6.45;;;;;;;;;;5118369;27;20039;-71
2022/08/19 09:23:17;;;;;;;8.35;6.55;;;;;;;;;;5136434;27;20043;-70
2022/08/19 09:25:53;;;;;;;11.60;6.25;;;;;;;;;;5136115;27;20118;-73
2022/08/19 09:28:21;;;;;;;8.20;6.70;;;;;;;;;;5135877;27;20039;-71
2022/08/19 09:30:53;;;;;;;6.43;5.40;;;;;;;;;;5136139;27;20035;-74
2022/08/19 09:33:20;;;;;;;9.30;6.13;;;;;;;;;;5135891;27;20092;-70
2022/08/19 09:35:48;;;;;;;7.10;5.88;;;;;;;;;;5135932;27;20035;-69
2022/08/19 09:38:21;;;;;;;11.43;8.07;;;;;;;;;;5135740;27;20127;-76
2022/08/19 09:40:49;;;;;;;7.75;6.18;;;;;;;;;;5135987;27;20059;-72
2022/08/19 09:43:17;;;;;;;8.10;5.72;;;;;;;;;;5107356;27;20431;-74
2022/08/19 09:46:00;;;;;;;10.60;6.65;;;;;;;;;;5115489;28;20089;-74
2022/08/19 09:48:28;;;;;;;11.50;6.18;;;;;;;;;;5113542;28;20074;-74
2022/08/19 09:50:55;;;;;;;9.07;6.20;;;;;;;;;;5111019;28;20063;-74
2022/08/19 09:53:23;;;;;;;10.75;8.48;;;;;;;;;;5103955;28;20032;-73
2022/08/19 09:55:52;;;;;;;10.65;6.22;;;;;;;;;;5114697;28;20118;-74
2022/08/19 09:58:20;;;;;;;13.10;11.35;;;;;;;;;;5113856;28;20035;-72
2022/08/19 10:00:53;;;;;;;10.52;8.52;;;;;;;;;;5071137;28;20044;-72
2022/08/19 10:03:21;;;;;;;16.20;11.93;;;;;;;;;;5094952;28;20036;-72
2022/08/19 10:05:57;;;;;;;11.65;7.60;;;;;;;;;;5093458;28;20050;-73
2022/08/19 10:08:28;;;;;;;10.40;7.32;;;;;;;;;;5094123;28;20397;-72
2022/08/19 10:10:56;;;;;;;10.40;6.30;;;;;;;;;;5093917;28;20040;-72
2022/08/19 10:13:26;;;;;;;9.57;6.30;;;;;;;;;;5094459;28;20069;-72
2022/08/19 10:15:55;;;;;;;8.75;6.78;;;;;;;;;;5094121;28;20443;-73
2022/08/19 10:18:24;;;;;;;7.38;6.00;;;;;;;;;;5094064;28;20108;-73
2022/08/19 10:20:53;;;;;;;11.30;6.80;;;;;;;;;;5099762;28;20040;-73
2022/08/19 10:23:33;;;;;;;7.15;6.25;;;;;;;;;;5076861;28;20048;-73
2022/08/19 10:26:03;;;;;;;8.23;6.35;;;;;;;;;;5094345;28;20063;-73
2022/08/19 10:28:43;;;;;;;11.45;6.32;;;;;;;;;;5094267;28;20044;-74
2022/08/19 10:31:15;;;;;;;9.65;7.00;;;;;;;;;;5093376;28;20047;-71
2022/08/19 10:33:47;;;;;;;10.68;6.88;;;;;;;;;;5094368;28;20048;-72
2022/08/19 10:36:23;;;;;;;10.20;6.38;;;;;;;;;;5076153;28;20370;-72
2022/08/19 10:38:52;;;;;;;9.75;6.50;;;;;;;;;;5094146;28;20048;-72
2022/08/19 10:41:27;;;;;;;9.63;6.45;;;;;;;;;;5075769;28;20424;-74
2022/08/19 10:43:58;;;;;;;8.45;6.20;;;;;;;;;;5093772;28;20040;-73
2022/08/19 10:46:32;;;;;;;8.02;7.07;;;;;;;;;;5093696;28;20044;-73
2022/08/19 10:49:01;;;;;;;9.50;6.68;;;;;;;;;;5093592;28;20405;-72
2022/08/19 10:54:16;;;;;;;8.80;6.75;;;;;;;;;;5093872;28;20124;-74
2022/08/19 10:56:55;;;;;;;7.93;6.10;;;;;;;;;;5093623;28;20059;-71
2022/08/19 10:59:27;;;;;;;8.65;6.18;;;;;;;;;;5092114;28;20032;-71
2022/08/19 11:02:01;;;;;;;10.98;6.82;;;;;;;;;;5092710;28;20036;-72
2022/08/19 11:04:29;;;;;;;9.15;6.07;;;;;;;;;;5092882;28;20047;-72
2022/08/19 11:06:57;;;;;;;12.63;8.38;;;;;;;;;;5074600;28;20055;-72
2022/08/19 11:09:26;;;;;;;8.65;6.53;;;;;;;;;;5092599;28;20050;-70
2022/08/19 11:12:00;;;;;;;11.40;5.93;;;;;;;;;;5092618;28;20046;-72
2022/08/19 11:14:30;;;;;;;8.55;6.28;;;;;;;;;;5092999;28;20044;-71
2022/08/19 11:17:00;;;;;;;9.30;6.45;;;;;;;;;;5093275;28;20040;-71
2022/08/19 11:19:28;;;;;;;9.27;6.10;;;;;;;;;;5093290;28;20051;-72
2022/08/19 11:21:55;;;;;;;10.77;6.85;;;;;;;;;;5093438;28;20526;-71
2022/08/19 11:24:27;;;;;;;7.28;5.60;;;;;;;;;;5093410;28;20048;-70
2022/08/19 11:26:58;;;;;;;12.85;6.35;;;;;;;;;;5093358;28;20542;-71
2022/08/19 11:29:27;;;;;;;9.85;6.30;;;;;;;;;;5093246;28;20087;-71
2022/08/19 11:31:55;;;;;;;8.68;6.30;;;;;;;;;;5093204;28;20036;-71
2022/08/19 11:34:25;;;;;;;9.90;6.32;;;;;;;;;;5093412;28;20081;-71
2022/08/19 11:36:57;;;;;;;6.72;5.90;;;;;;;;;;5093057;28;20040;-70
2022/08/19 11:39:27;;;;;;;11.27;6.55;;;;;;;;;;5075079;28;20108;-71
2022/08/19 11:41:55;;;;;;;10.85;6.68;;;;;;;;;;5074587;28;20059;-71
2022/08/19 11:44:23;;;;;;;10.30;6.63;;;;;;;;;;5093036;28;20051;-70
2022/08/19 11:46:52;;;;;;;8.98;6.15;;;;;;;;;;5075009;28;20051;-71
2022/08/19 11:49:21;;;;;;;8.02;6.18;;;;;;;;;;5092940;28;20035;-71
2022/08/19 11:51:50;;;;;;;8.63;6.28;;;;;;;;;;5092875;28;20529;-71
2022/08/19 11:54:20;;;;;;;6.95;5.93;;;;;;;;;;5092917;28;20051;-71
2022/08/19 11:56:48;;;;;;;7.97;5.88;;;;;;;;;;5092798;28;20036;-72
2022/08/19 11:59:16;;;;;;;13.52;6.20;;;;;;;;;;5092814;28;20040;-72
2022/08/19 12:01:44;;;;;;;7.53;6.63;;;;;;;;;;5092829;28;20033;-72
2022/08/19 12:04:11;;;;;;;6.55;5.82;;;;;;;;;;5092819;28;20040;-72
2022/08/19 12:06:40;;;;;;;7.60;5.57;;;;;;;;;;5092791;28;20039;-72
2022/08/19 12:09:09;;;;;;;6.13;5.57;;;;;;;;;;5092635;28;20507;-72
2022/08/19 12:11:37;;;;;;;8.45;5.82;;;;;;;;;;5092557;28;20047;-72
2022/08/19 12:14:05;;;;;;;10.95;6.10;;;;;;;;;;5092625;28;20071;-73
2022/08/19 12:16:33;;;;;;;8.57;6.70;;;;;;;;;;5092516;28;20031;-72
2022/08/19 12:19:03;;;;;;;9.38;6.88;;;;;;;;;;5092441;28;20075;-72
2022/08/19 12:21:33;;;;;;;9.73;5.75;;;;;;;;;;5092556;28;20040;-71
2022/08/19 12:24:02;;;;;;;8.55;6.18;;;;;;;;;;5092644;28;20404;-72
2022/08/19 12:26:31;;;;;;;8.02;5.78;;;;;;;;;;5092475;28;20040;-72
2022/08/19 12:28:59;;;;;;;8.35;6.03;;;;;;;;;;5092193;28;20056;-72
2022/08/19 12:31:30;;;;;;;7.07;5.43;;;;;;;;;;5074675;28;20036;-72
2022/08/19 12:33:57;;;;;;;6.78;6.07;;;;;;;;;;5092698;28;20147;-72
2022/08/19 12:36:25;;;;;;;6.50;5.90;;;;;;;;;;5092478;28;20071;-72
2022/08/19 12:38:53;;;;;;;8.82;5.57;;;;;;;;;;5092624;28;20119;-73
2022/08/19 12:41:22;;;;;;;8.43;5.80;;;;;;;;;;5092744;28;20399;-73
2022/08/19 12:43:50;;;;;;;8.50;5.60;;;;;;;;;;5092448;28;20044;-72
2022/08/19 12:46:18;;;;;;;6.82;5.65;;;;;;;;;;5092481;28;20128;-72
2022/08/19 12:48:48;;;;;;;7.03;5.72;;;;;;;;;;5092374;28;20519;-73
2022/08/19 12:51:21;;;;;;;9.38;5.85;;;;;;;;;;5092503;28;20121;-73
2022/08/19 12:53:49;;;;;;;8.30;6.07;;;;;;;;;;5075471;28;20074;-72
2022/08/19 12:56:18;;;;;;;8.93;6.03;;;;;;;;;;5096318;28;20111;-73
2022/08/19 12:58:50;;;;;;;7.32;6.55;;;;;;;;;;5096319;28;20032;-72
2022/08/19 13:01:20;;;;;;;7.35;5.90;;;;;;;;;;5096213;28;20044;-72
2022/08/19 13:03:52;;;;;;;7.20;6.28;;;;;;;;;;5096243;28;20271;-71
2022/08/19 13:06:20;;;;;;;8.48;5.82;;;;;;;;;;5096170;28;20040;-73
2022/08/19 13:08:47;;;;;;;8.60;5.85;;;;;;;;;;5077782;28;20040;-74
2022/08/19 13:11:17;;;;;;;7.55;5.53;;;;;;;;;;5096118;28;20043;-74
2022/08/19 13:13:46;;;;;;;9.55;6.13;;;;;;;;;;5095760;28;20040;-74
2022/08/19 13:16:14;;;;;;;9.07;5.75;;;;;;;;;;5095762;28;20525;-74
2022/08/19 13:18:43;;;;;;;15.13;5.68;;;;;;;;;;5059643;28;20066;-74
2022/08/19 13:21:12;;;;;;;8.27;5.50;;;;;;;;;;4993216;28;20058;-73
2022/08/19 13:23:40;;;;;;;8.90;5.70;;;;;;;;;;4992842;28;20069;-74
2022/08/19 13:26:09;;;;;;;7.72;5.45;;;;;;;;;;4992794;28;20103;-74
2022/08/19 13:34:11;;;;;;;6.85;5.75;;;;;;;;;;4992632;28;20050;-74
2022/08/19 13:36:39;;;;;;;7.75;5.63;;;;;;;;;;4992694;28;20492;-74
2022/08/19 13:39:08;;;;;;;9.90;7.18;;;;;;;;;;4992537;28;20077;-73
2022/08/19 13:41:36;;;;;;;9.20;6.18;;;;;;;;;;4992571;28;20038;-74
2022/08/19 13:44:06;;;;;;;6.32;5.03;;;;;;;;;;5059469;28;20056;-74
2022/08/19 13:46:34;;;;;;;7.70;5.50;;;;;;;;;;5059937;28;20078;-74
2022/08/19 13:49:01;;;;;;;5.90;5.20;;;;;;;;;;4992357;28;20053;-73
2022/08/19 13:51:29;;;;;;;6.63;5.80;;;;;;;;;;4992306;28;20434;-74
2022/08/19 13:53:56;;;;;;;6.95;5.80;;;;;;;;;;4992277;28;20069;-74
2022/08/19 13:56:24;;;;;;;6.63;5.63;;;;;;;;;;5058778;28;20046;-74
2022/08/19 13:58:53;;;;;;;8.68;6.40;;;;;;;;;;4992160;28;20083;-74
2022/08/19 14:01:21;;;;;;;8.68;6.10;;;;;;;;;;5059014;28;20038;-74
2022/08/19 14:03:51;;;;;;;8.35;5.40;;;;;;;;;;4992134;28;20050;-75
2022/08/19 14:06:21;;;;;;;7.88;5.20;;;;;;;;;;4992079;28;20039;-73
2022/08/19 14:08:48;;;;;;;7.13;5.88;;;;;;;;;;4992180;28;20069;-73
2022/08/19 14:11:16;;;;;;;7.65;5.20;;;;;;;;;;4992111;28;20073;-73
2022/08/19 14:13:44;;;;;;;6.20;4.93;;;;;;;;;;4992112;28;20099;-73
2022/08/19 14:16:13;;;;;;;6.25;5.00;;;;;;;;;;4992103;28;20031;-74
2022/08/19 14:18:41;;;;;;;6.43;5.47;;;;;;;;;;5065352;28;20085;-73
2022/08/19 14:21:14;;;;;;;6.45;5.22;;;;;;;;;;5094572;28;20489;-73
2022/08/19 14:23:41;;;;;;;9.43;5.90;;;;;;;;;;5094570;28;20048;-73
2022/08/19 14:26:11;;;;;;;8.13;6.18;;;;;;;;;;5094522;28;20481;-73
2022/08/19 14:28:41;;;;;;;8.85;5.75;;;;;;;;;;5094373;28;20577;-74
2022/08/19 14:31:12;;;;;;;8.95;5.63;;;;;;;;;;5094298;28;20573;-74
2022/08/19 14:33:40;;;;;;;8.55;5.78;;;;;;;;;;5094099;28;20036;-75
2022/08/19 14:36:08;;;;;;;7.47;5.13;;;;;;;;;;5094150;28;20040;-74
2022/08/19 14:38:36;;;;;;;10.43;5.57;;;;;;;;;;5094056;28;20036;-75
2022/08/19 14:41:19;;;;;;;6.30;5.13;;;;;;;;;;5094086;28;20067;-75
2022/08/19 14:43:48;;;;;;;6.50;5.10;;;;;;;;;;5094070;28;20131;-74
2022/08/19 14:46:17;;;;;;;10.10;5.57;;;;;;;;;;5094139;28;20500;-75
2022/08/19 14:48:47;;;;;;;7.78;5.38;;;;;;;;;;5093857;28;20067;-75
2022/08/19 14:51:19;;;;;;;8.57;5.90;;;;;;;;;;5094032;28;20078;-75
2022/08/19 14:53:48;;;;;;;6.97;5.25;;;;;;;;;;5093896;28;20033;-75
2022/08/19 14:56:17;;;;;;;8.45;5.20;;;;;;;;;;5093838;28;20040;-75
2022/08/19 14:58:45;;;;;;;7.03;5.47;;;;;;;;;;5093807;28;20039;-76
2022/08/19 15:01:13;;;;;;;8.43;5.25;;;;;;;;;;5093841;28;20425;-75
2022/08/19 15:03:41;;;;;;;7.80;5.60;;;;;;;;;;5093785;28;20047;-75
2022/08/19 15:06:09;;;;;;;9.38;5.70;;;;;;;;;;5093574;28;20040;-76
2022/08/19 15:08:40;;;;;;;8.23;5.53;;;;;;;;;;5093459;28;20044;-75
2022/08/19 15:23:10;;;;;;;7.30;5.82;;;;;;;;;;6166791;22;20420;-70
2022/08/19 15:25:38;;;;;;;6.75;5.53;;;;;;;;;;6164148;23;20049;-70
2022/08/19 15:28:05;;;;;;;7.07;5.50;;;;;;;;;;6164266;23;20024;-71